Yuedian 58 — BYFE — position and weather

sailwx.info

Track history (hours):
 
Tides and Currents Weather Stations Pressure Air Temp Water Temp Dewpoint Dewpoint Depression Visibility Wind Speed Wind Dir Waves Ship Positions

Yuedian 58

Last reported at 2014-Sep-05 23:19 UTC. Time now 2014-Sep-16 09:27 UTC.
Position N 09°03' E 123°43'.
Warning: this ship's position is 10 days out of date.

Length 190 m; draft 7.2 m.

Type: Cargo ship. MMSI: 414008000.

Date/timePositionNaut miles runAvg speedWind from/ knotsBaromVisibWave heightAir tempDewpointWater temp
2014-Sep-05 23:19N 09°03' E 123°43'1213.5
2014-Sep-05 22:27N 09°02' E 123°31'1213.8
2014-Sep-05 21:33N 09°01' E 123°19'1713.8
2014-Sep-05 20:17N 08°59' E 123°01'  
2014-Sep-02 12:07N 21°41' E 113°29'1013.2
2014-Sep-02 11:20N 21°36' E 113°20'17812.9
2014-Sep-01 21:33N 20°14' E 110°30'1211.8
2014-Sep-01 20:33N 20°10' E 110°19'1211.9
2014-Sep-01 19:33N 20°08' E 110°06'  
2014-Aug-28 12:30N 20°10' E 110°05'1010.8
2014-Aug-28 11:34N 20°12' E 110°16'1711.6
2014-Aug-28 10:06N 20°14' E 110°34'  
Track history (hours):
 
Tides and Currents Weather Stations Pressure Air Temp Water Temp Dewpoint Dewpoint Depression Visibility Wind Speed Wind Dir Waves Ship Positions

Yuedian 58

Last reported at 2014-Sep-05 23:19 UTC. Time now 2014-Sep-16 09:27 UTC.
Position N 09°03' E 123°43'.
Warning: this ship's position is 10 days out of date.

Length 190 m; draft 7.2 m.

Type: Cargo ship. MMSI: 414008000.

Date/timePositionNaut miles runAvg speedWind from/ knotsBaromVisibWave heightAir tempDewpointWater temp
2014-Sep-05 23:19N 09°03' E 123°43'1213.5
2014-Sep-05 22:27N 09°02' E 123°31'1213.8
2014-Sep-05 21:33N 09°01' E 123°19'1713.8
2014-Sep-05 20:17N 08°59' E 123°01'  
2014-Sep-02 12:07N 21°41' E 113°29'1013.2
2014-Sep-02 11:20N 21°36' E 113°20'17812.9
2014-Sep-01 21:33N 20°14' E 110°30'1211.8
2014-Sep-01 20:33N 20°10' E 110°19'1211.9
2014-Sep-01 19:33N 20°08' E 110°06'  
2014-Aug-28 12:30N 20°10' E 110°05'1010.8
2014-Aug-28 11:34N 20°12' E 110°16'1711.6
2014-Aug-28 10:06N 20°14' E 110°34'  

Dump ship's entire track history